createdAt,value
2019-03-26T00:00:15.828Z,12.00
2019-03-26T00:01:15.808Z,12.00
2019-03-26T00:02:15.801Z,12.00
2019-03-26T00:03:15.788Z,12.00
2019-03-26T00:04:15.779Z,12.00
2019-03-26T00:05:15.809Z,12.00
2019-03-26T00:06:15.751Z,12.00
2019-03-26T00:07:15.739Z,12.00
2019-03-26T00:08:15.754Z,12.00
2019-03-26T00:09:15.720Z,12.00
2019-03-26T00:10:15.705Z,12.00
2019-03-26T00:11:15.737Z,12.00
2019-03-26T00:12:21.775Z,12.00
2019-03-26T00:13:15.671Z,12.00
2019-03-26T00:14:15.667Z,12.00
2019-03-26T00:15:15.649Z,12.00
2019-03-26T00:16:15.646Z,12.00
2019-03-26T00:17:15.637Z,12.00
2019-03-26T00:18:15.617Z,12.00
2019-03-26T00:19:15.603Z,12.00
2019-03-26T00:20:15.588Z,12.00
2019-03-26T00:21:15.591Z,12.00
2019-03-26T00:22:15.569Z,12.00
2019-03-26T00:23:15.552Z,12.00
2019-03-26T00:24:15.543Z,12.00
2019-03-26T00:25:15.533Z,12.00
2019-03-26T00:26:15.539Z,12.00
2019-03-26T00:27:15.512Z,12.00
2019-03-26T00:28:15.495Z,12.00
2019-03-26T00:29:15.483Z,12.00
2019-03-26T00:30:15.477Z,12.00
2019-03-26T00:31:15.466Z,12.00
2019-03-26T00:32:15.459Z,12.00
2019-03-26T00:33:15.441Z,12.00
2019-03-26T00:34:19.571Z,16.00
2019-03-26T00:35:15.417Z,16.00
2019-03-26T00:36:15.406Z,12.00
2019-03-26T00:37:15.403Z,12.00
2019-03-26T00:38:15.385Z,12.00
2019-03-26T00:39:15.365Z,12.00
2019-03-26T00:40:15.359Z,12.00
2019-03-26T00:41:15.343Z,12.00
2019-03-26T00:42:15.414Z,12.00
2019-03-26T00:43:15.356Z,12.00
2019-03-26T00:44:21.704Z,16.00
2019-03-26T00:45:15.298Z,16.00
2019-03-26T00:46:15.285Z,16.00
2019-03-26T00:47:15.277Z,12.00
2019-03-26T00:48:15.269Z,12.00
2019-03-26T00:49:15.260Z,12.00
2019-03-26T00:50:15.246Z,12.00
2019-03-26T00:51:15.231Z,12.00
2019-03-26T00:52:15.214Z,12.00
2019-03-26T00:53:15.206Z,12.00
2019-03-26T00:54:15.224Z,12.00
2019-03-26T00:55:22.535Z,12.00
2019-03-26T00:56:16.165Z,12.00
2019-03-26T00:57:15.155Z,12.00
2019-03-26T00:58:15.143Z,12.00
2019-03-26T00:59:15.138Z,12.00
2019-03-26T01:00:15.168Z,12.00
2019-03-26T01:01:15.112Z,12.00
2019-03-26T01:02:15.097Z,12.00
2019-03-26T01:03:15.095Z,12.00
2019-03-26T01:04:15.084Z,12.00
2019-03-26T01:05:15.066Z,12.00
2019-03-26T01:06:15.092Z,12.00
2019-03-26T01:07:15.049Z,12.00
2019-03-26T01:08:15.032Z,12.00
2019-03-26T01:09:15.020Z,12.00
2019-03-26T01:10:15.012Z,12.00
2019-03-26T01:11:15.001Z,12.00
2019-03-26T01:12:14.998Z,12.00
2019-03-26T01:13:14.992Z,12.00
2019-03-26T01:14:14.959Z,12.00
2019-03-26T01:15:14.954Z,12.00
2019-03-26T01:16:21.254Z,12.00
2019-03-26T01:17:14.925Z,12.00
2019-03-26T01:18:14.915Z,12.00
2019-03-26T01:19:14.906Z,12.00
2019-03-26T01:20:14.893Z,12.00
2019-03-26T01:21:14.885Z,12.00
2019-03-26T01:22:14.885Z,12.00
2019-03-26T01:23:14.863Z,12.00
2019-03-26T01:24:14.845Z,12.00
2019-03-26T01:25:14.834Z,12.00
2019-03-26T01:26:14.827Z,12.00
2019-03-26T01:27:14.814Z,12.00
2019-03-26T01:28:14.822Z,12.00
2019-03-26T01:29:14.791Z,12.00
2019-03-26T01:30:14.779Z,12.00
2019-03-26T01:31:14.763Z,12.00
2019-03-26T01:32:14.755Z,12.00
2019-03-26T01:33:14.739Z,12.00
2019-03-26T01:34:14.774Z,12.00
2019-03-26T01:35:14.724Z,12.00
2019-03-26T01:36:14.710Z,12.00
2019-03-26T01:37:14.702Z,12.00
2019-03-26T01:38:14.681Z,12.00
2019-03-26T01:39:14.681Z,12.00
2019-03-26T01:40:14.696Z,12.00
2019-03-26T01:41:14.654Z,12.00
2019-03-26T01:42:14.643Z,12.00
2019-03-26T01:43:14.626Z,12.00
2019-03-26T01:44:14.612Z,16.00
2019-03-26T01:45:14.603Z,16.00
2019-03-26T01:46:14.696Z,16.00
2019-03-26T01:47:14.583Z,12.00
2019-03-26T01:48:20.974Z,12.00
2019-03-26T01:49:14.562Z,12.00
2019-03-26T01:50:14.548Z,12.00
2019-03-26T01:51:14.531Z,12.00
2019-03-26T01:52:14.535Z,12.00
2019-03-26T01:53:14.513Z,12.00
2019-03-26T01:54:14.496Z,12.00
2019-03-26T01:55:14.495Z,12.00
2019-03-26T01:56:14.476Z,12.00
2019-03-26T01:57:14.559Z,12.00
2019-03-26T01:58:14.459Z,12.00
2019-03-26T01:59:14.445Z,12.00
2019-03-26T02:00:14.427Z,12.00
2019-03-26T02:01:14.421Z,12.00
2019-03-26T02:02:14.412Z,12.00
2019-03-26T02:03:14.433Z,12.00
2019-03-26T02:04:14.384Z,12.00
2019-03-26T02:05:14.373Z,12.00
2019-03-26T02:06:14.362Z,12.00
2019-03-26T02:07:14.349Z,12.00
2019-03-26T02:08:14.333Z,12.00
2019-03-26T02:09:14.330Z,12.00
2019-03-26T02:10:14.317Z,12.00
2019-03-26T02:11:14.301Z,12.00
2019-03-26T02:12:14.296Z,12.00
2019-03-26T02:13:14.281Z,12.00
2019-03-26T02:14:14.289Z,12.00
2019-03-26T02:15:14.256Z,12.00
2019-03-26T02:16:14.247Z,12.00
2019-03-26T02:17:14.234Z,12.00
2019-03-26T02:18:14.220Z,12.00
2019-03-26T02:19:14.212Z,12.00
2019-03-26T02:20:20.781Z,12.00
2019-03-26T02:21:14.192Z,12.00
2019-03-26T02:22:14.179Z,12.00
2019-03-26T02:23:14.166Z,12.00
2019-03-26T02:24:14.157Z,12.00
2019-03-26T02:25:14.139Z,12.00
2019-03-26T02:26:14.165Z,12.00
2019-03-26T02:27:14.112Z,12.00
2019-03-26T02:28:14.103Z,12.00
2019-03-26T02:29:14.089Z,12.00
2019-03-26T02:30:14.085Z,12.00
2019-03-26T02:31:14.072Z,12.00
2019-03-26T02:32:14.077Z,12.00
2019-03-26T02:33:14.049Z,12.00
2019-03-26T02:34:14.038Z,12.00
2019-03-26T02:35:18.354Z,12.00
2019-03-26T02:36:14.009Z,12.00
2019-03-26T02:37:13.999Z,12.00
2019-03-26T02:38:14.001Z,12.00
2019-03-26T02:39:13.973Z,12.00
2019-03-26T02:40:13.965Z,12.00
2019-03-26T02:41:13.951Z,12.00
2019-03-26T02:42:13.962Z,12.00
2019-03-26T02:43:13.928Z,12.00
2019-03-26T02:44:13.926Z,12.00
2019-03-26T02:45:13.909Z,12.00
2019-03-26T02:46:13.899Z,12.00
2019-03-26T02:47:13.883Z,12.00
2019-03-26T02:48:13.889Z,12.00
2019-03-26T02:49:13.868Z,12.00
2019-03-26T02:50:13.847Z,12.00
2019-03-26T02:51:13.837Z,12.00
2019-03-26T02:52:20.214Z,12.00
2019-03-26T02:53:13.857Z,12.00
2019-03-26T02:54:13.806Z,12.00
2019-03-26T02:55:13.912Z,12.00
2019-03-26T02:56:13.786Z,12.00
2019-03-26T02:57:13.774Z,12.00
2019-03-26T02:58:13.759Z,16.00
2019-03-26T02:59:13.777Z,16.00
2019-03-26T03:00:13.737Z,16.00
2019-03-26T03:01:13.717Z,12.00
2019-03-26T03:02:13.707Z,12.00
2019-03-26T03:03:13.698Z,12.00
2019-03-26T03:04:13.682Z,12.00
2019-03-26T03:05:13.681Z,12.00
2019-03-26T03:06:13.660Z,12.00
2019-03-26T03:07:13.651Z,12.00
2019-03-26T03:08:13.647Z,12.00
2019-03-26T03:09:13.661Z,12.00
2019-03-26T03:10:13.612Z,12.00
2019-03-26T03:11:13.601Z,12.00
2019-03-26T03:12:13.594Z,12.00
2019-03-26T03:13:13.581Z,12.00
2019-03-26T03:14:13.571Z,12.00
2019-03-26T03:15:13.599Z,12.00
2019-03-26T03:16:13.547Z,12.00
2019-03-26T03:17:13.539Z,12.00
2019-03-26T03:18:13.524Z,16.00
2019-03-26T03:19:15.838Z,16.00
2019-03-26T03:20:13.497Z,16.00
2019-03-26T03:21:13.530Z,16.00
2019-03-26T03:22:13.485Z,16.00
2019-03-26T03:23:13.492Z,16.00
2019-03-26T03:24:19.546Z,16.00
2019-03-26T03:25:13.445Z,16.00
2019-03-26T03:26:13.433Z,16.00
2019-03-26T03:27:13.476Z,16.00
2019-03-26T03:28:13.406Z,16.00
2019-03-26T03:29:13.394Z,16.00
2019-03-26T03:30:13.394Z,16.00
2019-03-26T03:31:13.370Z,16.00
2019-03-26T03:32:13.360Z,16.00
2019-03-26T03:33:13.391Z,16.00
2019-03-26T03:34:13.338Z,16.00
2019-03-26T03:35:13.348Z,16.00
2019-03-26T03:36:13.315Z,16.00
2019-03-26T03:37:13.297Z,20.00
2019-03-26T03:38:13.293Z,20.00
2019-03-26T03:39:13.298Z,20.00
2019-03-26T03:40:13.372Z,16.00
2019-03-26T03:41:13.257Z,16.00
2019-03-26T03:42:13.270Z,16.00
2019-03-26T03:43:13.232Z,20.00
2019-03-26T03:44:13.217Z,20.00
2019-03-26T03:45:13.237Z,20.00
2019-03-26T03:46:13.191Z,20.00
2019-03-26T03:47:13.197Z,20.00
2019-03-26T03:48:13.176Z,20.00
2019-03-26T03:49:13.159Z,24.00
2019-03-26T03:50:13.315Z,20.00
2019-03-26T03:51:13.137Z,24.00
2019-03-26T03:52:13.124Z,24.00
2019-03-26T03:53:13.120Z,24.00
2019-03-26T03:54:13.102Z,24.00
2019-03-26T03:55:13.799Z,24.00
2019-03-26T03:56:19.857Z,28.00
2019-03-26T03:57:13.063Z,28.00
2019-03-26T03:58:13.053Z,32.00
2019-03-26T03:59:13.048Z,32.00
2019-03-26T04:00:13.035Z,32.00
2019-03-26T04:01:13.017Z,32.00
2019-03-26T04:02:13.049Z,36.00
2019-03-26T04:03:13.001Z,40.00
2019-03-26T04:04:12.988Z,40.00
2019-03-26T04:05:13.104Z,40.00
2019-03-26T04:06:12.963Z,40.00
2019-03-26T04:07:12.952Z,44.00
2019-03-26T04:08:13.109Z,48.00
2019-03-26T04:09:12.932Z,48.00
2019-03-26T04:10:12.913Z,48.00
2019-03-26T04:11:12.904Z,52.00
2019-03-26T04:12:12.897Z,48.00
2019-03-26T04:13:12.881Z,52.00
2019-03-26T04:14:12.909Z,52.00
2019-03-26T04:15:12.865Z,52.00
2019-03-26T04:16:12.847Z,60.00
2019-03-26T04:17:12.838Z,64.00
2019-03-26T04:18:12.821Z,68.00
2019-03-26T04:19:12.811Z,72.00
2019-03-26T04:20:12.810Z,80.00
2019-03-26T04:21:12.803Z,80.00
2019-03-26T04:22:12.793Z,84.00
2019-03-26T04:23:12.765Z,84.00
2019-03-26T04:24:12.805Z,84.00
2019-03-26T04:25:12.742Z,88.00
2019-03-26T04:26:12.726Z,88.00
2019-03-26T04:27:12.719Z,88.00
2019-03-26T04:28:19.098Z,92.00
2019-03-26T04:29:12.691Z,92.00
2019-03-26T04:30:12.693Z,96.00
2019-03-26T04:31:12.670Z,96.00
2019-03-26T04:32:12.661Z,96.00
2019-03-26T04:33:12.652Z,100.00
2019-03-26T04:34:12.635Z,100.00
2019-03-26T04:35:12.874Z,100.00
2019-03-26T04:36:24.729Z,100.00
2019-03-26T04:37:13.608Z,104.00
2019-03-26T04:38:12.587Z,100.00
2019-03-26T04:39:12.585Z,104.00
2019-03-26T04:40:12.591Z,104.00
2019-03-26T04:41:12.666Z,108.00
2019-03-26T04:42:12.547Z,112.00
2019-03-26T04:43:12.534Z,120.00
2019-03-26T04:44:12.524Z,124.00
2019-03-26T04:45:12.508Z,128.00
2019-03-26T04:46:12.492Z,132.00
2019-03-26T04:47:12.539Z,136.00
2019-03-26T04:48:12.469Z,140.00
2019-03-26T04:49:12.463Z,148.00
2019-03-26T04:50:12.445Z,152.00
2019-03-26T04:51:12.443Z,152.00
2019-03-26T04:52:12.425Z,160.00
2019-03-26T04:53:12.420Z,160.00
2019-03-26T04:54:12.405Z,160.00
2019-03-26T04:55:12.391Z,160.00
2019-03-26T04:56:12.381Z,164.00
2019-03-26T04:57:12.365Z,164.00
2019-03-26T04:58:12.376Z,164.00
2019-03-26T04:59:12.345Z,164.00
2019-03-26T05:00:18.434Z,168.00
2019-03-26T05:01:12.326Z,168.00
2019-03-26T05:02:12.313Z,172.00
2019-03-26T05:03:12.296Z,176.00
2019-03-26T05:04:12.298Z,180.00
2019-03-26T05:05:12.648Z,188.00
2019-03-26T05:06:12.265Z,192.00
2019-03-26T05:07:12.255Z,196.00
2019-03-26T05:08:12.238Z,204.00
2019-03-26T05:09:12.246Z,212.00
2019-03-26T05:10:12.220Z,220.00
2019-03-26T05:11:12.209Z,232.00
2019-03-26T05:12:12.196Z,244.00
2019-03-26T05:13:12.186Z,252.00
2019-03-26T05:14:12.170Z,264.00
2019-03-26T05:15:12.197Z,252.00
2019-03-26T05:16:12.153Z,236.00
2019-03-26T05:17:12.134Z,212.00
2019-03-26T05:18:12.124Z,196.00
2019-03-26T05:19:12.111Z,184.00
2019-03-26T05:20:12.098Z,180.00
2019-03-26T05:21:12.122Z,180.00
2019-03-26T05:22:23.458Z,180.00
2019-03-26T05:23:13.061Z,184.00
2019-03-26T05:24:12.054Z,188.00
2019-03-26T05:25:12.039Z,192.00
2019-03-26T05:26:12.035Z,200.00
2019-03-26T05:27:12.029Z,208.00
2019-03-26T05:28:12.003Z,212.00
2019-03-26T05:29:11.998Z,212.00
2019-03-26T05:30:11.981Z,212.00
2019-03-26T05:31:11.972Z,212.00
2019-03-26T05:32:18.370Z,204.00
2019-03-26T05:33:11.966Z,212.00
2019-03-26T05:34:11.933Z,216.00
2019-03-26T05:35:12.018Z,216.00
2019-03-26T05:36:11.910Z,220.00
2019-03-26T05:37:11.901Z,220.00
2019-03-26T05:38:11.895Z,220.00
2019-03-26T05:39:11.886Z,224.00
2019-03-26T05:40:11.870Z,216.00
2019-03-26T05:41:11.853Z,212.00
2019-03-26T05:42:11.843Z,212.00
2019-03-26T05:43:11.829Z,204.00
2019-03-26T05:44:11.827Z,208.00
2019-03-26T05:45:11.803Z,208.00
2019-03-26T05:46:11.794Z,204.00
2019-03-26T05:47:11.790Z,204.00
2019-03-26T05:48:11.773Z,208.00
2019-03-26T05:49:11.765Z,192.00
2019-03-26T05:50:11.791Z,200.00
2019-03-26T05:51:11.742Z,220.00
2019-03-26T05:52:11.725Z,240.00
2019-03-26T05:53:11.718Z,260.00
2019-03-26T05:54:11.785Z,284.00
2019-03-26T05:55:11.692Z,288.00
2019-03-26T05:56:11.698Z,276.00
2019-03-26T05:57:11.664Z,260.00
2019-03-26T05:58:11.659Z,256.00
2019-03-26T05:59:11.647Z,252.00
2019-03-26T06:00:11.781Z,244.00
2019-03-26T06:01:11.659Z,264.00
2019-03-26T06:02:15.264Z,244.00
2019-03-26T06:03:12.595Z,240.00
2019-03-26T06:04:17.677Z,232.00
2019-03-26T06:05:11.573Z,232.00
2019-03-26T06:06:11.565Z,240.00
2019-03-26T06:07:11.602Z,240.00
2019-03-26T06:08:11.536Z,240.00
2019-03-26T06:09:11.527Z,256.00
2019-03-26T06:10:11.519Z,260.00
2019-03-26T06:11:11.507Z,240.00
2019-03-26T06:12:11.489Z,232.00
2019-03-26T06:13:11.504Z,232.00
2019-03-26T06:14:11.476Z,228.00
2019-03-26T06:15:11.460Z,228.00
2019-03-26T06:16:11.447Z,240.00
2019-03-26T06:17:11.439Z,232.00
2019-03-26T06:18:11.420Z,232.00
2019-03-26T06:19:11.429Z,232.00
2019-03-26T06:20:11.414Z,236.00
2019-03-26T06:21:11.387Z,248.00
2019-03-26T06:22:11.374Z,256.00
2019-03-26T06:23:11.366Z,280.00
2019-03-26T06:24:11.367Z,280.00
2019-03-26T06:25:11.346Z,268.00
2019-03-26T06:26:11.331Z,268.00
2019-03-26T06:27:11.318Z,272.00
2019-03-26T06:28:11.313Z,268.00
2019-03-26T06:29:11.294Z,260.00
2019-03-26T06:30:11.323Z,264.00
2019-03-26T06:31:11.275Z,252.00
2019-03-26T06:32:11.257Z,248.00
2019-03-26T06:33:11.250Z,236.00
2019-03-26T06:34:11.238Z,232.00
2019-03-26T06:35:11.229Z,228.00
2019-03-26T06:36:17.431Z,228.00
2019-03-26T06:37:17.808Z,224.00
2019-03-26T06:38:12.192Z,228.00
2019-03-26T06:39:11.216Z,232.00
2019-03-26T06:40:11.167Z,232.00
2019-03-26T06:41:11.154Z,228.00
2019-03-26T06:42:11.178Z,232.00
2019-03-26T06:43:11.132Z,228.00
2019-03-26T06:44:11.126Z,236.00
2019-03-26T06:45:11.106Z,232.00
2019-03-26T06:46:11.102Z,224.00
2019-03-26T06:47:11.083Z,216.00
2019-03-26T06:48:11.084Z,212.00
2019-03-26T06:49:11.060Z,204.00
2019-03-26T06:50:11.051Z,212.00
2019-03-26T06:51:11.043Z,220.00
2019-03-26T06:52:11.038Z,236.00
2019-03-26T06:53:11.049Z,236.00
2019-03-26T06:54:11.003Z,236.00
2019-03-26T06:55:10.989Z,232.00
2019-03-26T06:56:10.984Z,228.00
2019-03-26T06:57:10.972Z,220.00
2019-03-26T06:58:10.956Z,212.00
2019-03-26T06:59:10.960Z,224.00
2019-03-26T07:00:10.939Z,224.00
2019-03-26T07:01:10.923Z,228.00
2019-03-26T07:02:10.908Z,228.00
2019-03-26T07:03:10.896Z,236.00
2019-03-26T07:04:10.906Z,240.00
2019-03-26T07:05:10.874Z,260.00
2019-03-26T07:06:10.866Z,280.00
2019-03-26T07:07:10.851Z,288.00
2019-03-26T07:08:17.232Z,308.00
2019-03-26T07:09:10.869Z,324.00
2019-03-26T07:10:10.816Z,316.00
2019-03-26T07:11:10.803Z,316.00
2019-03-26T07:12:10.793Z,336.00
2019-03-26T07:13:10.783Z,332.00
2019-03-26T07:14:10.777Z,336.00
2019-03-26T07:15:10.802Z,324.00
2019-03-26T07:16:10.747Z,300.00
2019-03-26T07:17:11.403Z,276.00
2019-03-26T07:18:10.731Z,268.00
2019-03-26T07:19:10.714Z,276.00
2019-03-26T07:20:10.697Z,284.00
2019-03-26T07:21:10.698Z,304.00
2019-03-26T07:22:10.675Z,324.00
2019-03-26T07:23:10.667Z,348.00
2019-03-26T07:24:10.661Z,388.00
2019-03-26T07:25:10.640Z,416.00
2019-03-26T07:26:10.671Z,428.00
2019-03-26T07:27:10.621Z,440.00
2019-03-26T07:28:10.608Z,452.00
2019-03-26T07:29:10.600Z,460.00
2019-03-26T07:30:10.591Z,492.00
2019-03-26T07:31:10.575Z,536.00
2019-03-26T07:32:10.613Z,560.00
2019-03-26T07:33:10.552Z,548.00
2019-03-26T07:34:10.541Z,564.00
2019-03-26T07:35:10.525Z,656.00
2019-03-26T07:36:10.513Z,708.00
2019-03-26T07:37:10.503Z,648.00
2019-03-26T07:38:10.526Z,648.00
2019-03-26T07:39:10.482Z,616.00
2019-03-26T07:40:16.855Z,620.00
2019-03-26T07:41:10.457Z,516.00
2019-03-26T07:42:10.451Z,480.00
2019-03-26T07:43:10.436Z,492.00
2019-03-26T07:44:10.435Z,520.00
2019-03-26T07:45:10.412Z,568.00
2019-03-26T07:46:10.405Z,516.00
2019-03-26T07:47:10.387Z,484.00
2019-03-26T07:48:10.376Z,464.00
2019-03-26T07:49:10.400Z,492.00
2019-03-26T07:50:10.350Z,532.00
2019-03-26T07:51:10.336Z,580.00
2019-03-26T07:52:10.330Z,640.00
2019-03-26T07:53:10.323Z,708.00
2019-03-26T07:54:10.303Z,696.00
2019-03-26T07:55:10.304Z,664.00
2019-03-26T07:56:10.281Z,640.00
2019-03-26T07:57:10.271Z,624.00
2019-03-26T07:58:10.261Z,684.00
2019-03-26T07:59:10.245Z,632.00
2019-03-26T08:00:10.278Z,596.00
2019-03-26T08:01:10.228Z,656.00
2019-03-26T08:02:10.217Z,748.00
2019-03-26T08:03:10.198Z,660.00
2019-03-26T08:04:12.545Z,668.00
2019-03-26T08:05:10.179Z,636.00
2019-03-26T08:06:10.188Z,608.00
2019-03-26T08:07:10.155Z,624.00
2019-03-26T08:08:10.145Z,548.00
2019-03-26T08:09:10.172Z,552.00
2019-03-26T08:10:10.125Z,592.00
2019-03-26T08:11:10.109Z,608.00
2019-03-26T08:12:17.951Z,604.00
2019-03-26T08:13:10.166Z,580.00
2019-03-26T08:14:10.110Z,580.00
2019-03-26T08:15:10.069Z,660.00
2019-03-26T08:16:10.053Z,660.00
2019-03-26T08:17:10.074Z,652.00
2019-03-26T08:18:10.030Z,656.00
2019-03-26T08:19:10.019Z,644.00
2019-03-26T08:20:12.452Z,596.00
2019-03-26T08:21:09.991Z,636.00
2019-03-26T08:22:09.993Z,656.00
2019-03-26T08:23:09.979Z,636.00
2019-03-26T08:24:09.954Z,644.00
2019-03-26T08:25:09.948Z,688.00
2019-03-26T08:26:09.934Z,648.00
2019-03-26T08:27:09.949Z,656.00
2019-03-26T08:28:09.924Z,620.00
2019-03-26T08:29:09.913Z,564.00
2019-03-26T08:30:09.890Z,536.00
2019-03-26T08:31:09.873Z,548.00
2019-03-26T08:32:09.869Z,564.00
2019-03-26T08:33:09.859Z,628.00
2019-03-26T08:34:09.880Z,672.00
2019-03-26T08:35:09.835Z,664.00
2019-03-26T08:36:09.824Z,700.00
2019-03-26T08:37:09.811Z,792.00
2019-03-26T08:38:12.807Z,788.00
2019-03-26T08:39:09.787Z,732.00
2019-03-26T08:40:09.920Z,796.00
2019-03-26T08:41:09.770Z,812.00
2019-03-26T08:42:09.745Z,728.00
2019-03-26T08:43:09.740Z,800.00
2019-03-26T08:44:15.823Z,756.00
2019-03-26T08:45:09.718Z,740.00
2019-03-26T08:46:09.721Z,636.00
2019-03-26T08:47:09.695Z,632.00
2019-03-26T08:48:09.732Z,608.00
2019-03-26T08:49:09.683Z,620.00
2019-03-26T08:50:09.653Z,584.00
2019-03-26T08:51:09.645Z,580.00
2019-03-26T08:52:09.647Z,504.00
2019-03-26T08:53:09.617Z,476.00
2019-03-26T08:54:09.606Z,488.00
2019-03-26T08:55:09.602Z,504.00
2019-03-26T08:56:09.642Z,540.00
2019-03-26T08:57:09.575Z,540.00
2019-03-26T08:58:09.559Z,532.00
2019-03-26T08:59:09.554Z,536.00
2019-03-26T09:00:09.545Z,588.00
2019-03-26T09:01:09.533Z,540.00
2019-03-26T09:02:09.523Z,532.00
2019-03-26T09:03:09.506Z,488.00
2019-03-26T09:04:09.493Z,504.00
2019-03-26T09:05:09.482Z,520.00
2019-03-26T09:06:09.466Z,516.00
2019-03-26T09:07:11.048Z,520.00
2019-03-26T09:08:09.446Z,484.00
2019-03-26T09:09:09.438Z,460.00
2019-03-26T09:10:09.425Z,460.00
2019-03-26T09:11:09.411Z,452.00
2019-03-26T09:12:09.398Z,456.00
2019-03-26T09:13:09.428Z,464.00
2019-03-26T09:14:09.374Z,468.00
2019-03-26T09:15:09.362Z,460.00
2019-03-26T09:16:15.444Z,484.00
2019-03-26T09:17:09.337Z,544.00
2019-03-26T09:18:09.342Z,576.00
2019-03-26T09:19:09.321Z,544.00
2019-03-26T09:20:09.305Z,540.00
2019-03-26T09:21:09.292Z,548.00
2019-03-26T09:22:09.280Z,532.00
2019-03-26T09:23:12.145Z,528.00
2019-03-26T09:24:09.278Z,504.00
2019-03-26T09:25:09.247Z,492.00
2019-03-26T09:26:09.239Z,520.00
2019-03-26T09:27:09.227Z,480.00
2019-03-26T09:28:09.216Z,424.00
2019-03-26T09:29:09.199Z,420.00
2019-03-26T09:30:09.203Z,400.00
2019-03-26T09:31:09.174Z,444.00
2019-03-26T09:32:09.254Z,476.00
2019-03-26T09:33:09.162Z,532.00
2019-03-26T09:34:10.078Z,592.00
2019-03-26T09:35:09.134Z,636.00
2019-03-26T09:36:09.122Z,576.00
2019-03-26T09:37:09.108Z,552.00
2019-03-26T09:38:09.107Z,596.00
2019-03-26T09:39:09.085Z,580.00
2019-03-26T09:40:09.074Z,560.00
2019-03-26T09:41:09.061Z,628.00
2019-03-26T09:42:09.052Z,668.00
2019-03-26T09:43:09.056Z,652.00
2019-03-26T09:44:09.029Z,680.00
2019-03-26T09:45:09.015Z,660.00
2019-03-26T09:46:09.005Z,664.00
2019-03-26T09:47:16.171Z,748.00
2019-03-26T09:49:17.879Z,644.00
2019-03-26T09:50:17.844Z,684.00
2019-03-26T09:51:17.835Z,724.00
2019-03-26T09:52:17.820Z,684.00
2019-03-26T09:53:17.813Z,792.00
2019-03-26T09:54:17.795Z,876.00
2019-03-26T09:55:17.795Z,708.00
2019-03-26T09:56:28.312Z,676.00
2019-03-26T09:57:18.764Z,716.00
2019-03-26T09:58:17.756Z,720.00
2019-03-26T09:59:17.759Z,740.00
2019-03-26T10:00:17.725Z,708.00
2019-03-26T10:01:17.712Z,696.00
2019-03-26T10:02:17.701Z,724.00
2019-03-26T10:03:17.695Z,796.00
2019-03-26T10:04:17.679Z,724.00
2019-03-26T10:05:17.679Z,724.00
2019-03-26T10:06:23.223Z,732.00
2019-03-26T10:07:21.687Z,712.00
2019-03-26T10:08:18.103Z,708.00
2019-03-26T10:09:17.623Z,720.00
2019-03-26T10:10:17.617Z,680.00
2019-03-26T10:11:17.600Z,656.00
2019-03-26T10:12:17.592Z,664.00
2019-03-26T10:13:17.577Z,660.00
2019-03-26T10:14:17.565Z,656.00
2019-03-26T10:15:17.593Z,624.00
2019-03-26T10:16:17.545Z,624.00
2019-03-26T10:17:17.528Z,628.00
2019-03-26T10:18:17.526Z,668.00
2019-03-26T10:19:17.508Z,632.00
2019-03-26T10:20:23.974Z,656.00
2019-03-26T10:21:17.489Z,688.00
2019-03-26T10:22:19.948Z,752.00
2019-03-26T10:23:17.466Z,784.00
2019-03-26T10:24:17.454Z,772.00
2019-03-26T10:25:17.441Z,704.00
2019-03-26T10:26:17.435Z,680.00
2019-03-26T10:27:17.414Z,676.00
2019-03-26T10:28:17.405Z,652.00
2019-03-26T10:29:29.668Z,624.00
2019-03-26T10:30:18.382Z,648.00
2019-03-26T10:31:17.413Z,652.00
2019-03-26T10:32:17.362Z,628.00
2019-03-26T10:33:17.345Z,632.00
2019-03-26T10:34:17.333Z,612.00
2019-03-26T10:35:17.326Z,608.00
2019-03-26T10:36:17.315Z,596.00
2019-03-26T10:37:17.407Z,608.00
2019-03-26T10:38:17.292Z,624.00
2019-03-26T10:39:17.288Z,608.00
2019-03-26T10:40:17.263Z,612.00
2019-03-26T10:41:18.717Z,784.00
2019-03-26T10:42:17.242Z,704.00
2019-03-26T10:43:17.253Z,708.00
2019-03-26T10:44:17.223Z,668.00
2019-03-26T10:45:17.214Z,664.00
2019-03-26T10:46:17.197Z,688.00
2019-03-26T10:47:17.185Z,880.00
2019-03-26T10:48:17.185Z,624.00
2019-03-26T10:49:17.188Z,616.00
2019-03-26T10:50:17.152Z,676.00
2019-03-26T10:51:17.139Z,676.00
2019-03-26T10:52:23.218Z,788.00
2019-03-26T10:53:17.182Z,780.00
2019-03-26T10:54:17.105Z,752.00
2019-03-26T10:55:17.098Z,700.00
2019-03-26T10:56:17.083Z,640.00
2019-03-26T10:57:17.073Z,652.00
2019-03-26T10:58:17.058Z,844.00
2019-03-26T10:59:17.088Z,824.00
2019-03-26T11:00:17.042Z,788.00
2019-03-26T11:01:17.023Z,676.00
2019-03-26T11:02:17.018Z,624.00
2019-03-26T11:03:17.003Z,664.00
2019-03-26T11:04:16.988Z,732.00
2019-03-26T11:05:17.021Z,672.00
2019-03-26T11:06:17.031Z,616.00
2019-03-26T11:07:16.955Z,632.00
2019-03-26T11:08:16.948Z,700.00
2019-03-26T11:09:24.182Z,684.00
2019-03-26T11:10:17.932Z,648.00
2019-03-26T11:11:16.926Z,788.00
2019-03-26T11:12:16.898Z,700.00
2019-03-26T11:13:16.892Z,688.00
2019-03-26T11:14:16.873Z,648.00
2019-03-26T11:15:16.866Z,628.00
2019-03-26T11:16:16.858Z,700.00
2019-03-26T11:17:16.862Z,712.00
2019-03-26T11:18:16.833Z,664.00
2019-03-26T11:19:16.827Z,784.00
2019-03-26T11:20:16.845Z,816.00
2019-03-26T11:21:16.792Z,644.00
2019-03-26T11:22:16.787Z,692.00
2019-03-26T11:23:16.809Z,712.00
2019-03-26T11:24:23.171Z,696.00
2019-03-26T11:25:16.752Z,680.00
2019-03-26T11:26:16.740Z,656.00
2019-03-26T11:27:16.733Z,640.00
2019-03-26T11:28:16.713Z,648.00
2019-03-26T11:29:16.747Z,640.00
2019-03-26T11:30:16.689Z,620.00
2019-03-26T11:31:16.676Z,528.00
2019-03-26T11:32:16.669Z,456.00
2019-03-26T11:33:16.657Z,424.00
2019-03-26T11:34:16.643Z,392.00
2019-03-26T11:35:16.647Z,380.00
2019-03-26T11:36:16.622Z,360.00
2019-03-26T11:37:16.611Z,348.00
2019-03-26T11:38:18.475Z,364.00
2019-03-26T11:39:16.622Z,396.00
2019-03-26T11:40:16.577Z,388.00
2019-03-26T11:41:16.563Z,368.00
2019-03-26T11:42:16.552Z,420.00
2019-03-26T11:43:16.538Z,440.00
2019-03-26T11:44:16.532Z,460.00
2019-03-26T11:45:16.558Z,480.00
2019-03-26T11:46:16.503Z,480.00
2019-03-26T11:47:16.497Z,472.00
2019-03-26T11:48:16.481Z,484.00
2019-03-26T11:49:16.469Z,480.00
2019-03-26T11:50:16.458Z,444.00
2019-03-26T11:51:16.458Z,468.00
2019-03-26T11:52:16.438Z,528.00
2019-03-26T11:53:16.426Z,476.00
2019-03-26T11:54:16.411Z,460.00
2019-03-26T11:55:16.406Z,496.00
2019-03-26T11:56:22.504Z,508.00
2019-03-26T11:57:16.377Z,488.00
2019-03-26T11:58:29.538Z,472.00
2019-03-26T11:59:17.361Z,516.00
2019-03-26T12:00:16.347Z,524.00
2019-03-26T12:01:16.361Z,528.00
2019-03-26T12:02:16.354Z,524.00
2019-03-26T12:03:16.316Z,496.00
2019-03-26T12:04:16.298Z,532.00
2019-03-26T12:05:16.333Z,484.00
2019-03-26T12:06:16.279Z,484.00
2019-03-26T12:07:16.311Z,456.00
2019-03-26T12:08:16.255Z,444.00
2019-03-26T12:09:16.239Z,428.00
2019-03-26T12:10:16.230Z,400.00
2019-03-26T12:11:16.219Z,400.00
2019-03-26T12:12:16.204Z,408.00
2019-03-26T12:13:16.227Z,420.00
2019-03-26T12:14:16.185Z,424.00
2019-03-26T12:15:16.167Z,440.00
2019-03-26T12:16:16.158Z,448.00
2019-03-26T12:17:16.147Z,444.00
2019-03-26T12:18:16.132Z,432.00
2019-03-26T12:19:16.156Z,444.00
2019-03-26T12:20:16.126Z,452.00
2019-03-26T12:21:16.100Z,448.00
2019-03-26T12:22:16.087Z,432.00
2019-03-26T12:23:16.077Z,420.00
2019-03-26T12:24:16.107Z,404.00
2019-03-26T12:25:16.128Z,408.00
2019-03-26T12:26:16.042Z,420.00
2019-03-26T12:27:16.033Z,428.00
2019-03-26T12:28:22.104Z,432.00
2019-03-26T12:29:16.010Z,436.00
2019-03-26T12:30:16.016Z,440.00
2019-03-26T12:31:15.986Z,436.00
2019-03-26T12:32:15.977Z,456.00
2019-03-26T12:33:15.966Z,468.00
2019-03-26T12:34:15.948Z,468.00
2019-03-26T12:35:15.937Z,456.00
2019-03-26T12:36:15.938Z,444.00
2019-03-26T12:37:15.915Z,440.00
2019-03-26T12:38:15.899Z,424.00